sensor_id;sensor_type;location;lat;lon;timestamp;pressure;altitude;pressure_sealevel;temperature;humidity
52625;BME280;38519;52.540;13.410;2023-08-31T00:00:39;45454.28;;;-146.17;100.00
52625;BME280;38519;52.540;13.410;2023-08-31T00:03:05;45472.06;;;-146.17;100.00
52625;BME280;38519;52.540;13.410;2023-08-31T00:05:31;45478.00;;;-146.17;100.00
52625;BME280;38519;52.540;13.410;2023-08-31T00:07:56;45442.41;;;-146.17;100.00
52625;BME280;38519;52.540;13.410;2023-08-31T00:10:22;45436.50;;;-146.17;100.00
52625;BME280;38519;52.540;13.410;2023-08-31T00:12:49;45472.06;;;-146.17;100.00
52625;BME280;38519;52.540;13.410;2023-08-31T00:15:14;45436.50;;;-146.17;100.00
52625;BME280;38519;52.540;13.410;2023-08-31T00:17:39;45446.38;;;-146.17;100.00
52625;BME280;38519;52.540;13.410;2023-08-31T00:20:06;45430.56;;;-146.17;100.00
52625;BME280;38519;52.540;13.410;2023-08-31T00:22:34;45456.25;;;-146.17;100.00
52625;BME280;38519;52.540;13.410;2023-08-31T00:24:59;45438.47;;;-146.17;100.00
52625;BME280;38519;52.540;13.410;2023-08-31T00:27:24;45466.13;;;-146.17;100.00
52625;BME280;38519;52.540;13.410;2023-08-31T00:29:49;45436.50;;;-146.17;100.00
52625;BME280;38519;52.540;13.410;2023-08-31T00:32:16;45454.28;;;-146.17;100.00
52625;BME280;38519;52.540;13.410;2023-08-31T00:34:41;45466.13;;;-146.17;100.00
52625;BME280;38519;52.540;13.410;2023-08-31T00:37:07;45434.50;;;-146.17;100.00
52625;BME280;38519;52.540;13.410;2023-08-31T00:39:33;45479.97;;;-146.17;100.00
52625;BME280;38519;52.540;13.410;2023-08-31T00:41:59;45444.41;;;-146.17;100.00
52625;BME280;38519;52.540;13.410;2023-08-31T00:44:25;45454.28;;;-146.17;100.00
52625;BME280;38519;52.540;13.410;2023-08-31T00:46:50;45418.69;;;-146.17;100.00
52625;BME280;38519;52.540;13.410;2023-08-31T00:49:16;45452.31;;;-146.17;100.00
52625;BME280;38519;52.540;13.410;2023-08-31T00:51:42;45446.38;;;-146.17;100.00
52625;BME280;38519;52.540;13.410;2023-08-31T00:54:09;45430.56;;;-146.17;100.00
52625;BME280;38519;52.540;13.410;2023-08-31T00:56:35;45440.44;;;-146.17;100.00
52625;BME280;38519;52.540;13.410;2023-08-31T00:59:00;45450.31;;;-146.17;100.00
52625;BME280;38519;52.540;13.410;2023-08-31T01:14:28;45466.13;;;-146.17;100.00
52625;BME280;38519;52.540;13.410;2023-08-31T01:16:51;45478.00;;;-146.17;100.00
52625;BME280;38519;52.540;13.410;2023-08-31T01:21:46;45464.16;;;-146.17;100.00
52625;BME280;38519;52.540;13.410;2023-08-31T01:24:12;45489.84;;;-146.17;100.00
52625;BME280;38519;52.540;13.410;2023-08-31T01:26:38;45470.09;;;-146.17;100.00
52625;BME280;38519;52.540;13.410;2023-08-31T01:29:06;45485.91;;;-146.17;100.00
52625;BME280;38519;52.540;13.410;2023-08-31T01:31:31;45533.31;;;-146.17;100.00
52625;BME280;38519;52.540;13.410;2023-08-31T01:33:56;45444.41;;;-146.17;100.00
52625;BME280;38519;52.540;13.410;2023-08-31T01:41:55;45485.91;;;-146.17;100.00
52625;BME280;38519;52.540;13.410;2023-08-31T01:44:21;45503.69;;;-146.17;100.00
52625;BME280;38519;52.540;13.410;2023-08-31T01:46:51;45493.81;;;-146.17;100.00
52625;BME280;38519;52.540;13.410;2023-08-31T01:49:16;45489.84;;;-146.17;100.00
52625;BME280;38519;52.540;13.410;2023-08-31T01:51:43;45501.72;;;-146.17;100.00
52625;BME280;38519;52.540;13.410;2023-08-31T01:54:08;45478.00;;;-146.17;100.00
52625;BME280;38519;52.540;13.410;2023-08-31T01:56:33;45481.94;;;-146.17;100.00
52625;BME280;38519;52.540;13.410;2023-08-31T01:58:58;45513.56;;;-146.17;100.00
52625;BME280;38519;52.540;13.410;2023-08-31T02:01:24;45458.22;;;-146.17;100.00
52625;BME280;38519;52.540;13.410;2023-08-31T02:03:49;45499.72;;;-146.17;100.00
52625;BME280;38519;52.540;13.410;2023-08-31T02:06:14;45521.47;;;-146.17;100.00
52625;BME280;38519;52.540;13.410;2023-08-31T02:08:39;45517.53;;;-146.17;100.00
52625;BME280;38519;52.540;13.410;2023-08-31T02:11:05;45503.69;;;-146.17;100.00
52625;BME280;38519;52.540;13.410;2023-08-31T02:13:30;45505.66;;;-146.17;100.00
52625;BME280;38519;52.540;13.410;2023-08-31T02:15:55;45533.31;;;-146.17;100.00
52625;BME280;38519;52.540;13.410;2023-08-31T02:18:20;45511.59;;;-146.17;100.00
52625;BME280;38519;52.540;13.410;2023-08-31T02:20:46;45513.56;;;-146.17;100.00
52625;BME280;38519;52.540;13.410;2023-08-31T02:23:11;45509.63;;;-146.17;100.00
52625;BME280;38519;52.540;13.410;2023-08-31T02:25:37;45501.72;;;-146.17;100.00
52625;BME280;38519;52.540;13.410;2023-08-31T02:28:02;45529.38;;;-146.17;100.00
52625;BME280;38519;52.540;13.410;2023-08-31T02:30:27;45509.63;;;-146.17;100.00
52625;BME280;38519;52.540;13.410;2023-08-31T02:32:53;45509.63;;;-146.17;100.00
52625;BME280;38519;52.540;13.410;2023-08-31T02:35:18;45509.63;;;-146.17;100.00
52625;BME280;38519;52.540;13.410;2023-08-31T02:37:43;45507.63;;;-146.17;100.00
52625;BME280;38519;52.540;13.410;2023-08-31T02:40:10;45517.53;;;-146.17;100.00
52625;BME280;38519;52.540;13.410;2023-08-31T02:42:35;45531.34;;;-146.17;100.00
52625;BME280;38519;52.540;13.410;2023-08-31T02:45:00;45533.31;;;-146.17;100.00
52625;BME280;38519;52.540;13.410;2023-08-31T02:47:26;45529.38;;;-146.17;100.00
52625;BME280;38519;52.540;13.410;2023-08-31T02:49:51;45501.72;;;-146.17;100.00
52625;BME280;38519;52.540;13.410;2023-08-31T02:52:16;45529.38;;;-146.17;100.00
52625;BME280;38519;52.540;13.410;2023-08-31T02:54:41;45507.63;;;-146.17;100.00
52625;BME280;38519;52.540;13.410;2023-08-31T02:57:07;45497.75;;;-146.17;100.00
52625;BME280;38519;52.540;13.410;2023-08-31T02:59:32;45537.28;;;-146.17;100.00
52625;BME280;38519;52.540;13.410;2023-08-31T03:02:01;45515.53;;;-146.17;100.00
52625;BME280;38519;52.540;13.410;2023-08-31T03:04:26;45527.41;;;-146.17;100.00
52625;BME280;38519;52.540;13.410;2023-08-31T03:06:51;45527.41;;;-146.17;100.00
52625;BME280;38519;52.540;13.410;2023-08-31T03:09:18;45513.56;;;-146.17;100.00
52625;BME280;38519;52.540;13.410;2023-08-31T03:11:45;45529.38;;;-146.17;100.00
52625;BME280;38519;52.540;13.410;2023-08-31T03:14:10;45513.56;;;-146.17;100.00
52625;BME280;38519;52.540;13.410;2023-08-31T03:16:35;45525.41;;;-146.17;100.00
52625;BME280;38519;52.540;13.410;2023-08-31T03:19:01;45519.50;;;-146.17;100.00
52625;BME280;38519;52.540;13.410;2023-08-31T03:21:26;45525.41;;;-146.17;100.00
52625;BME280;38519;52.540;13.410;2023-08-31T03:23:51;45513.56;;;-146.17;100.00
52625;BME280;38519;52.540;13.410;2023-08-31T03:26:16;45509.63;;;-146.17;100.00
52625;BME280;38519;52.540;13.410;2023-08-31T03:28:43;45511.59;;;-146.17;100.00
52625;BME280;38519;52.540;13.410;2023-08-31T03:31:09;45521.47;;;-146.17;100.00
52625;BME280;38519;52.540;13.410;2023-08-31T03:33:35;45553.09;;;-146.17;100.00
52625;BME280;38519;52.540;13.410;2023-08-31T03:36:03;45545.19;;;-146.17;100.00
52625;BME280;38519;52.540;13.410;2023-08-31T03:38:30;45489.84;;;-146.17;100.00
52625;BME280;38519;52.540;13.410;2023-08-31T03:40:55;45537.28;;;-146.17;100.00
52625;BME280;38519;52.540;13.410;2023-08-31T03:43:21;45513.56;;;-146.17;100.00
52625;BME280;38519;52.540;13.410;2023-08-31T03:45:46;45523.44;;;-146.17;100.00
52625;BME280;38519;52.540;13.410;2023-08-31T03:48:13;45517.53;;;-146.17;100.00
52625;BME280;38519;52.540;13.410;2023-08-31T03:50:39;45535.31;;;-146.17;100.00
52625;BME280;38519;52.540;13.410;2023-08-31T03:53:04;45537.28;;;-146.17;100.00
52625;BME280;38519;52.540;13.410;2023-08-31T03:55:30;45521.47;;;-146.17;100.00
52625;BME280;38519;52.540;13.410;2023-08-31T03:57:55;45511.59;;;-146.17;100.00
52625;BME280;38519;52.540;13.410;2023-08-31T04:00:20;45497.75;;;-146.17;100.00
52625;BME280;38519;52.540;13.410;2023-08-31T04:02:45;45529.38;;;-146.17;100.00
52625;BME280;38519;52.540;13.410;2023-08-31T04:05:11;45523.44;;;-146.17;100.00
52625;BME280;38519;52.540;13.410;2023-08-31T04:07:36;45521.47;;;-146.17;100.00
52625;BME280;38519;52.540;13.410;2023-08-31T04:10:02;45541.22;;;-146.17;100.00
52625;BME280;38519;52.540;13.410;2023-08-31T04:12:28;45497.75;;;-146.17;100.00
52625;BME280;38519;52.540;13.410;2023-08-31T04:14:55;45519.50;;;-146.17;100.00
52625;BME280;38519;52.540;13.410;2023-08-31T04:17:20;45521.47;;;-146.17;100.00
52625;BME280;38519;52.540;13.410;2023-08-31T04:19:47;45543.22;;;-146.17;100.00
52625;BME280;38519;52.540;13.410;2023-08-31T04:22:12;45529.38;;;-146.17;100.00
52625;BME280;38519;52.540;13.410;2023-08-31T04:24:37;45525.41;;;-146.17;100.00
52625;BME280;38519;52.540;13.410;2023-08-31T04:27:03;45507.63;;;-146.17;100.00
52625;BME280;38519;52.540;13.410;2023-08-31T04:29:28;45543.22;;;-146.17;100.00
52625;BME280;38519;52.540;13.410;2023-08-31T04:31:53;45545.19;;;-146.17;100.00
52625;BME280;38519;52.540;13.410;2023-08-31T04:34:19;45533.31;;;-146.17;100.00
52625;BME280;38519;52.540;13.410;2023-08-31T04:36:45;45562.97;;;-146.17;100.00
52625;BME280;38519;52.540;13.410;2023-08-31T04:39:11;45543.22;;;-146.17;100.00
52625;BME280;38519;52.540;13.410;2023-08-31T04:41:37;45529.38;;;-146.17;100.00
52625;BME280;38519;52.540;13.410;2023-08-31T04:44:02;45570.88;;;-146.17;100.00
52625;BME280;38519;52.540;13.410;2023-08-31T04:46:27;45525.41;;;-146.17;100.00
52625;BME280;38519;52.540;13.410;2023-08-31T04:48:52;45493.81;;;-146.17;100.00
52625;BME280;38519;52.540;13.410;2023-08-31T04:51:28;45539.25;;;-146.17;100.00
52625;BME280;38519;52.540;13.410;2023-08-31T04:53:54;45517.53;;;-146.17;100.00
52625;BME280;38519;52.540;13.410;2023-08-31T04:56:19;45551.13;;;-146.17;100.00
52625;BME280;38519;52.540;13.410;2023-08-31T04:58:44;45568.91;;;-146.17;100.00
52625;BME280;38519;52.540;13.410;2023-08-31T05:01:09;45535.31;;;-146.17;100.00
52625;BME280;38519;52.540;13.410;2023-08-31T05:03:35;45521.47;;;-146.17;100.00
52625;BME280;38519;52.540;13.410;2023-08-31T05:06:00;45531.34;;;-146.17;100.00
52625;BME280;38519;52.540;13.410;2023-08-31T05:08:25;45495.78;;;-146.17;100.00
52625;BME280;38519;52.540;13.410;2023-08-31T05:10:50;45562.97;;;-146.17;100.00
52625;BME280;38519;52.540;13.410;2023-08-31T05:13:16;45564.94;;;-146.17;100.00
52625;BME280;38519;52.540;13.410;2023-08-31T05:15:41;45557.03;;;-146.17;100.00
52625;BME280;38519;52.540;13.410;2023-08-31T05:18:06;45521.47;;;-146.17;100.00
52625;BME280;38519;52.540;13.410;2023-08-31T05:20:33;45493.81;;;-146.17;100.00
52625;BME280;38519;52.540;13.410;2023-08-31T05:22:59;45497.75;;;-146.17;100.00
52625;BME280;38519;52.540;13.410;2023-08-31T05:25:24;45543.22;;;-146.17;100.00
52625;BME280;38519;52.540;13.410;2023-08-31T05:27:49;45537.28;;;-146.17;100.00
52625;BME280;38519;52.540;13.410;2023-08-31T05:30:14;45517.53;;;-146.17;100.00
52625;BME280;38519;52.540;13.410;2023-08-31T05:32:39;45553.09;;;-146.17;100.00
52625;BME280;38519;52.540;13.410;2023-08-31T05:35:05;45551.13;;;-146.17;100.00
52625;BME280;38519;52.540;13.410;2023-08-31T05:37:32;45513.56;;;-146.17;100.00
52625;BME280;38519;52.540;13.410;2023-08-31T05:39:57;45576.81;;;-146.17;100.00
52625;BME280;38519;52.540;13.410;2023-08-31T05:42:23;45523.44;;;-146.17;100.00
52625;BME280;38519;52.540;13.410;2023-08-31T05:44:48;45499.72;;;-146.17;100.00
52625;BME280;38519;52.540;13.410;2023-08-31T05:47:13;45517.53;;;-146.17;100.00
52625;BME280;38519;52.540;13.410;2023-08-31T05:49:39;45513.56;;;-146.17;100.00
52625;BME280;38519;52.540;13.410;2023-08-31T05:52:04;45535.31;;;-146.17;100.00
52625;BME280;38519;52.540;13.410;2023-08-31T05:54:29;45570.88;;;-146.17;100.00
52625;BME280;38519;52.540;13.410;2023-08-31T05:56:54;45555.06;;;-146.17;100.00
52625;BME280;38519;52.540;13.410;2023-08-31T05:59:20;45503.69;;;-146.17;100.00
52625;BME280;38519;52.540;13.410;2023-08-31T06:01:46;45541.22;;;-146.17;100.00
52625;BME280;38519;52.540;13.410;2023-08-31T06:04:11;45509.63;;;-146.17;100.00
52625;BME280;38519;52.540;13.410;2023-08-31T06:06:36;45497.75;;;-146.17;100.00
52625;BME280;38519;52.540;13.410;2023-08-31T06:09:02;45517.53;;;-146.17;100.00
52625;BME280;38519;52.540;13.410;2023-08-31T06:11:28;45495.78;;;-146.17;100.00
52625;BME280;38519;52.540;13.410;2023-08-31T06:13:53;45505.66;;;-146.17;100.00
52625;BME280;38519;52.540;13.410;2023-08-31T06:16:19;45537.28;;;-146.17;100.00
52625;BME280;38519;52.540;13.410;2023-08-31T06:18:44;45523.44;;;-146.17;100.00
52625;BME280;38519;52.540;13.410;2023-08-31T06:21:09;45505.66;;;-146.17;100.00
52625;BME280;38519;52.540;13.410;2023-08-31T06:23:35;45525.41;;;-146.17;100.00
52625;BME280;38519;52.540;13.410;2023-08-31T06:26:00;45553.09;;;-146.17;100.00
52625;BME280;38519;52.540;13.410;2023-08-31T06:28:25;45525.41;;;-146.17;100.00
52625;BME280;38519;52.540;13.410;2023-08-31T06:30:51;45523.44;;;-146.17;100.00
52625;BME280;38519;52.540;13.410;2023-08-31T06:33:16;45515.53;;;-146.17;100.00
52625;BME280;38519;52.540;13.410;2023-08-31T06:35:45;45529.38;;;-146.17;100.00
52625;BME280;38519;52.540;13.410;2023-08-31T06:38:10;45523.44;;;-146.17;100.00
52625;BME280;38519;52.540;13.410;2023-08-31T06:40:36;45545.19;;;-146.17;100.00
52625;BME280;38519;52.540;13.410;2023-08-31T06:43:02;45521.47;;;-146.17;100.00
52625;BME280;38519;52.540;13.410;2023-08-31T06:45:28;45509.63;;;-146.17;100.00
52625;BME280;38519;52.540;13.410;2023-08-31T06:47:53;45549.13;;;-146.17;100.00
52625;BME280;38519;52.540;13.410;2023-08-31T06:50:19;45511.59;;;-146.17;100.00
52625;BME280;38519;52.540;13.410;2023-08-31T06:52:44;45489.84;;;-146.17;100.00
52625;BME280;38519;52.540;13.410;2023-08-31T06:55:11;45521.47;;;-146.17;100.00
52625;BME280;38519;52.540;13.410;2023-08-31T06:57:36;45513.56;;;-146.17;100.00
52625;BME280;38519;52.540;13.410;2023-08-31T07:00:02;45535.31;;;-146.17;100.00
52625;BME280;38519;52.540;13.410;2023-08-31T07:02:28;45517.53;;;-146.17;100.00
52625;BME280;38519;52.540;13.410;2023-08-31T07:04:55;45523.44;;;-146.17;100.00
52625;BME280;38519;52.540;13.410;2023-08-31T07:07:20;45535.31;;;-146.17;100.00
52625;BME280;38519;52.540;13.410;2023-08-31T07:09:46;45549.13;;;-146.17;100.00
52625;BME280;38519;52.540;13.410;2023-08-31T07:12:11;45547.16;;;-146.17;100.00
52625;BME280;38519;52.540;13.410;2023-08-31T07:14:37;45545.19;;;-146.17;100.00
52625;BME280;38519;52.540;13.410;2023-08-31T07:17:02;45479.97;;;-146.17;100.00
52625;BME280;38519;52.540;13.410;2023-08-31T07:19:27;45511.59;;;-146.17;100.00
52625;BME280;38519;52.540;13.410;2023-08-31T07:21:53;45503.69;;;-146.17;100.00
52625;BME280;38519;52.540;13.410;2023-08-31T07:24:20;45501.72;;;-146.17;100.00
52625;BME280;38519;52.540;13.410;2023-08-31T07:26:45;45517.53;;;-146.17;100.00
52625;BME280;38519;52.540;13.410;2023-08-31T07:29:10;45531.34;;;-146.17;100.00
52625;BME280;38519;52.540;13.410;2023-08-31T07:31:35;45509.63;;;-146.17;100.00
52625;BME280;38519;52.540;13.410;2023-08-31T07:34:02;45519.50;;;-146.17;100.00
52625;BME280;38519;52.540;13.410;2023-08-31T07:36:28;45533.31;;;-146.17;100.00
52625;BME280;38519;52.540;13.410;2023-08-31T07:38:53;45531.34;;;-146.17;100.00
52625;BME280;38519;52.540;13.410;2023-08-31T07:41:19;45509.63;;;-146.17;100.00
52625;BME280;38519;52.540;13.410;2023-08-31T07:43:44;45541.22;;;-146.17;100.00
52625;BME280;38519;52.540;13.410;2023-08-31T07:46:10;45515.53;;;-146.17;100.00
52625;BME280;38519;52.540;13.410;2023-08-31T07:48:37;45517.53;;;-146.17;100.00
52625;BME280;38519;52.540;13.410;2023-08-31T07:51:05;45513.56;;;-146.17;100.00
52625;BME280;38519;52.540;13.410;2023-08-31T07:53:30;45513.56;;;-146.17;100.00
52625;BME280;38519;52.540;13.410;2023-08-31T07:55:56;45515.53;;;-146.17;100.00
52625;BME280;38519;52.540;13.410;2023-08-31T07:58:22;45493.81;;;-146.17;100.00
52625;BME280;38519;52.540;13.410;2023-08-31T08:00:47;45529.38;;;-146.17;100.00
52625;BME280;38519;52.540;13.410;2023-08-31T08:03:13;45509.63;;;-146.17;100.00
52625;BME280;38519;52.540;13.410;2023-08-31T08:05:41;45491.81;;;-146.17;100.00
52625;BME280;38519;52.540;13.410;2023-08-31T08:08:06;45495.78;;;-146.17;100.00
52625;BME280;38519;52.540;13.410;2023-08-31T08:10:33;45521.47;;;-146.17;100.00
52625;BME280;38519;52.540;13.410;2023-08-31T08:12:58;45523.44;;;-146.17;100.00
52625;BME280;38519;52.540;13.410;2023-08-31T08:15:24;45521.47;;;-146.17;100.00
52625;BME280;38519;52.540;13.410;2023-08-31T08:17:49;45537.28;;;-146.17;100.00
52625;BME280;38519;52.540;13.410;2023-08-31T08:20:14;45507.63;;;-146.17;100.00
52625;BME280;38519;52.540;13.410;2023-08-31T08:22:39;45501.72;;;-146.17;100.00
52625;BME280;38519;52.540;13.410;2023-08-31T08:25:06;45515.53;;;-146.17;100.00
52625;BME280;38519;52.540;13.410;2023-08-31T08:27:32;45513.56;;;-146.17;100.00
52625;BME280;38519;52.540;13.410;2023-08-31T08:29:58;45489.84;;;-146.17;100.00
52625;BME280;38519;52.540;13.410;2023-08-31T08:32:23;45515.53;;;-146.17;100.00
52625;BME280;38519;52.540;13.410;2023-08-31T08:34:49;45507.63;;;-146.17;100.00
52625;BME280;38519;52.540;13.410;2023-08-31T08:37:14;45481.94;;;-146.17;100.00
52625;BME280;38519;52.540;13.410;2023-08-31T08:39:40;45501.72;;;-146.17;100.00
52625;BME280;38519;52.540;13.410;2023-08-31T08:42:05;45505.66;;;-146.17;100.00
52625;BME280;38519;52.540;13.410;2023-08-31T08:44:33;45474.03;;;-146.17;100.00
52625;BME280;38519;52.540;13.410;2023-08-31T08:47:00;45481.94;;;-146.17;100.00
52625;BME280;38519;52.540;13.410;2023-08-31T08:49:26;45462.19;;;-146.17;100.00
52625;BME280;38519;52.540;13.410;2023-08-31T08:51:51;45501.72;;;-146.17;100.00
52625;BME280;38519;52.540;13.410;2023-08-31T08:54:17;45503.69;;;-146.17;100.00
52625;BME280;38519;52.540;13.410;2023-08-31T08:56:43;45489.84;;;-146.17;100.00
52625;BME280;38519;52.540;13.410;2023-08-31T08:59:08;45489.84;;;-146.17;100.00
52625;BME280;38519;52.540;13.410;2023-08-31T09:01:37;45483.91;;;-146.17;100.00
52625;BME280;38519;52.540;13.410;2023-08-31T09:04:03;45511.59;;;-146.17;100.00
52625;BME280;38519;52.540;13.410;2023-08-31T09:06:28;45481.94;;;-146.17;100.00
52625;BME280;38519;52.540;13.410;2023-08-31T09:08:54;45487.88;;;-146.17;100.00
52625;BME280;38519;52.540;13.410;2023-08-31T09:11:22;45497.75;;;-146.17;100.00
52625;BME280;38519;52.540;13.410;2023-08-31T09:13:48;45476.00;;;-146.17;100.00
52625;BME280;38519;52.540;13.410;2023-08-31T09:16:24;45456.25;;;-146.17;100.00
52625;BME280;38519;52.540;13.410;2023-08-31T09:18:51;45454.28;;;-146.17;100.00
52625;BME280;38519;52.540;13.410;2023-08-31T09:21:17;45440.44;;;-146.17;100.00
52625;BME280;38519;52.540;13.410;2023-08-31T09:23:44;45450.31;;;-146.17;100.00
52625;BME280;38519;52.540;13.410;2023-08-31T09:26:11;45454.28;;;-146.17;100.00
52625;BME280;38519;52.540;13.410;2023-08-31T09:28:40;45450.31;;;-146.17;100.00
52625;BME280;38519;52.540;13.410;2023-08-31T09:31:06;45454.28;;;-146.17;100.00
52625;BME280;38519;52.540;13.410;2023-08-31T09:33:32;45466.13;;;-146.17;100.00
52625;BME280;38519;52.540;13.410;2023-08-31T09:35:57;45452.31;;;-146.17;100.00
52625;BME280;38519;52.540;13.410;2023-08-31T09:38:25;45468.09;;;-146.17;100.00
52625;BME280;38519;52.540;13.410;2023-08-31T09:40:50;45454.28;;;-146.17;100.00
52625;BME280;38519;52.540;13.410;2023-08-31T09:43:19;45426.59;;;-146.17;100.00
52625;BME280;38519;52.540;13.410;2023-08-31T09:45:45;45468.09;;;-146.17;100.00
52625;BME280;38519;52.540;13.410;2023-08-31T09:48:10;45456.25;;;-146.17;100.00
52625;BME280;38519;52.540;13.410;2023-08-31T09:50:37;45450.31;;;-146.17;100.00
52625;BME280;38519;52.540;13.410;2023-08-31T09:53:03;45410.78;;;-146.17;100.00
52625;BME280;38519;52.540;13.410;2023-08-31T09:55:30;45410.78;;;-146.17;100.00
52625;BME280;38519;52.540;13.410;2023-08-31T09:57:56;45418.69;;;-146.17;100.00
52625;BME280;38519;52.540;13.410;2023-08-31T10:00:22;45478.00;;;-146.17;100.00
52625;BME280;38519;52.540;13.410;2023-08-31T10:02:48;45436.50;;;-146.17;100.00
52625;BME280;38519;52.540;13.410;2023-08-31T10:05:14;45446.38;;;-146.17;100.00
52625;BME280;38519;52.540;13.410;2023-08-31T10:07:41;45438.47;;;-146.17;100.00
52625;BME280;38519;52.540;13.410;2023-08-31T10:10:07;45400.91;;;-146.17;100.00
52625;BME280;38519;52.540;13.410;2023-08-31T10:12:33;45416.72;;;-146.17;99.36
52625;BME280;38519;52.540;13.410;2023-08-31T10:15:00;45396.97;;;-146.17;99.16
52625;BME280;38519;52.540;13.410;2023-08-31T10:17:25;45416.72;;;-146.17;100.00
52625;BME280;38519;52.540;13.410;2023-08-31T10:19:52;45438.47;;;-146.17;100.00
52625;BME280;38519;52.540;13.410;2023-08-31T10:22:17;45432.53;;;-146.17;99.52
52625;BME280;38519;52.540;13.410;2023-08-31T10:24:56;45420.69;;;-146.17;100.00
52625;BME280;38519;52.540;13.410;2023-08-31T10:27:21;45448.34;;;-146.17;92.93
52625;BME280;38519;52.540;13.410;2023-08-31T10:29:46;45446.38;;;-146.17;92.11
52625;BME280;38519;52.540;13.410;2023-08-31T10:32:16;45444.41;;;-146.17;90.90
52625;BME280;38519;52.540;13.410;2023-08-31T10:34:42;45450.31;;;-146.17;91.91
52625;BME280;38519;52.540;13.410;2023-08-31T10:37:21;45444.41;;;-146.17;100.00
52625;BME280;38519;52.540;13.410;2023-08-31T10:39:47;45505.66;;;-146.17;97.18
52625;BME280;38519;52.540;13.410;2023-08-31T10:42:12;45525.41;;;-146.17;100.00
52625;BME280;38519;52.540;13.410;2023-08-31T10:44:41;45525.41;;;-146.17;100.00
52625;BME280;38519;52.540;13.410;2023-08-31T10:47:07;45559.03;;;-146.17;100.00
52625;BME280;38519;52.540;13.410;2023-08-31T10:49:33;45566.94;;;-146.17;100.00
52625;BME280;38519;52.540;13.410;2023-08-31T10:52:14;45521.47;;;-146.17;100.00
52625;BME280;38519;52.540;13.410;2023-08-31T10:54:39;45553.09;;;-146.17;100.00
52625;BME280;38519;52.540;13.410;2023-08-31T10:57:05;45515.53;;;-146.17;100.00
52625;BME280;38519;52.540;13.410;2023-08-31T10:59:47;45549.13;;;-146.17;100.00
52625;BME280;38519;52.540;13.410;2023-08-31T11:02:34;45531.34;;;-146.17;100.00
52625;BME280;38519;52.540;13.410;2023-08-31T11:05:08;45531.34;;;-146.17;100.00
52625;BME280;38519;52.540;13.410;2023-08-31T11:07:34;45521.47;;;-146.17;100.00
52625;BME280;38519;52.540;13.410;2023-08-31T11:10:07;45529.38;;;-146.17;100.00
52625;BME280;38519;52.540;13.410;2023-08-31T11:12:34;45527.41;;;-146.17;100.00
52625;BME280;38519;52.540;13.410;2023-08-31T11:14:59;45519.50;;;-146.17;100.00
52625;BME280;38519;52.540;13.410;2023-08-31T11:17:24;45491.81;;;-146.17;100.00
52625;BME280;38519;52.540;13.410;2023-08-31T11:19:49;45541.22;;;-146.17;100.00
52625;BME280;38519;52.540;13.410;2023-08-31T11:22:15;45479.97;;;-146.17;100.00
52625;BME280;38519;52.540;13.410;2023-08-31T11:24:40;45478.00;;;-146.17;100.00
52625;BME280;38519;52.540;13.410;2023-08-31T11:27:07;45472.06;;;-146.17;100.00
52625;BME280;38519;52.540;13.410;2023-08-31T11:29:32;45481.94;;;-146.17;100.00
52625;BME280;38519;52.540;13.410;2023-08-31T11:32:01;45420.69;;;-146.17;100.00
52625;BME280;38519;52.540;13.410;2023-08-31T11:34:28;45458.22;;;-146.17;100.00
52625;BME280;38519;52.540;13.410;2023-08-31T11:36:53;45418.69;;;-146.17;100.00
52625;BME280;38519;52.540;13.410;2023-08-31T11:39:18;45466.13;;;-146.17;100.00
52625;BME280;38519;52.540;13.410;2023-08-31T11:41:45;45476.00;;;-146.17;100.00
52625;BME280;38519;52.540;13.410;2023-08-31T11:44:14;45491.81;;;-146.17;100.00
52625;BME280;38519;52.540;13.410;2023-08-31T11:46:43;45479.97;;;-146.17;100.00
52625;BME280;38519;52.540;13.410;2023-08-31T11:49:09;45478.00;;;-146.17;100.00
52625;BME280;38519;52.540;13.410;2023-08-31T11:51:35;45472.06;;;-146.17;100.00
52625;BME280;38519;52.540;13.410;2023-08-31T11:54:01;45499.72;;;-146.17;100.00
52625;BME280;38519;52.540;13.410;2023-08-31T11:56:49;45515.53;;;-146.17;100.00
52625;BME280;38519;52.540;13.410;2023-08-31T11:59:17;45493.81;;;-146.17;100.00
52625;BME280;38519;52.540;13.410;2023-08-31T12:01:43;45489.84;;;-146.17;100.00
52625;BME280;38519;52.540;13.410;2023-08-31T12:04:12;45489.84;;;-146.17;100.00
52625;BME280;38519;52.540;13.410;2023-08-31T12:06:38;45483.91;;;-146.17;100.00
52625;BME280;38519;52.540;13.410;2023-08-31T12:09:08;45533.31;;;-146.17;100.00
52625;BME280;38519;52.540;13.410;2023-08-31T12:11:34;45448.34;;;-146.17;100.00
52625;BME280;38519;52.540;13.410;2023-08-31T12:13:59;45371.28;;;-146.17;100.00
52625;BME280;38519;52.540;13.410;2023-08-31T12:16:31;45454.28;;;-146.17;100.00
52625;BME280;38519;52.540;13.410;2023-08-31T12:19:01;45474.03;;;-146.17;100.00
52625;BME280;38519;52.540;13.410;2023-08-31T12:21:27;45458.22;;;-146.17;100.00
52625;BME280;38519;52.540;13.410;2023-08-31T12:23:53;45478.00;;;-146.17;100.00
52625;BME280;38519;52.540;13.410;2023-08-31T12:26:18;45462.19;;;-146.17;100.00
52625;BME280;38519;52.540;13.410;2023-08-31T12:28:43;45462.19;;;-146.17;100.00
52625;BME280;38519;52.540;13.410;2023-08-31T12:31:08;45454.28;;;-146.17;100.00
52625;BME280;38519;52.540;13.410;2023-08-31T12:33:34;45466.13;;;-146.17;100.00
52625;BME280;38519;52.540;13.410;2023-08-31T12:35:59;45450.31;;;-146.17;100.00